createdAt,value
2023-04-11T00:02:31.111Z,12.36
2023-04-11T00:07:30.753Z,12.36
2023-04-11T00:12:30.680Z,12.35
2023-04-11T00:17:30.642Z,12.36
2023-04-11T00:22:30.567Z,12.35
2023-04-11T00:27:30.486Z,12.35
2023-04-11T00:32:30.462Z,12.41
2023-04-11T00:37:30.351Z,12.45
2023-04-11T00:42:30.275Z,12.45
2023-04-11T00:47:30.253Z,12.45
2023-04-11T00:52:30.141Z,12.42
2023-04-11T00:57:30.081Z,12.34
2023-04-11T01:02:30.164Z,12.19
2023-04-11T01:07:29.957Z,11.94
2023-04-11T01:12:29.879Z,11.68
2023-04-11T01:17:29.879Z,11.44
2023-04-11T01:22:29.750Z,11.22
2023-04-11T01:27:29.692Z,11.09
2023-04-11T01:32:29.644Z,11.07
2023-04-11T01:37:29.555Z,11.03
2023-04-11T01:42:29.480Z,11.01
2023-04-11T01:47:29.522Z,11.06
2023-04-11T01:52:29.355Z,11.06
2023-04-11T01:57:29.282Z,10.99
2023-04-11T02:02:29.331Z,10.88
2023-04-11T02:07:29.150Z,10.81
2023-04-11T02:12:29.077Z,10.75
2023-04-11T02:17:29.091Z,10.73
2023-04-11T02:22:28.939Z,10.68
2023-04-11T02:27:28.879Z,10.73
2023-04-11T02:32:28.821Z,10.70
2023-04-11T02:37:28.748Z,10.70
2023-04-11T02:42:28.673Z,10.68
2023-04-11T02:47:28.643Z,10.62
2023-04-11T02:52:28.538Z,10.56
2023-04-11T02:57:28.478Z,10.49
2023-04-11T03:02:28.540Z,10.53
2023-04-11T03:07:28.345Z,10.55
2023-04-11T03:12:28.273Z,10.49
2023-04-11T03:17:28.231Z,10.49
2023-04-11T03:22:28.140Z,10.59
2023-04-11T03:27:28.091Z,10.73
2023-04-11T03:32:28.001Z,10.81
2023-04-11T03:37:27.963Z,10.78
2023-04-11T03:42:27.901Z,10.74
2023-04-11T03:47:27.829Z,10.77
2023-04-11T03:52:27.748Z,10.74
2023-04-11T03:57:27.681Z,10.70
2023-04-11T04:02:27.754Z,10.68
2023-04-11T04:07:27.543Z,10.66
2023-04-11T04:12:27.478Z,10.63
2023-04-11T04:17:27.444Z,10.68
2023-04-11T04:22:27.334Z,10.70
2023-04-11T04:27:27.273Z,10.73
2023-04-11T04:32:27.248Z,10.71
2023-04-11T04:37:27.399Z,10.74
2023-04-11T04:42:27.065Z,10.74
2023-04-11T04:47:27.072Z,10.71
2023-04-11T04:52:26.935Z,10.71
2023-04-11T04:57:26.876Z,10.70
2023-04-11T05:02:27.168Z,10.70
2023-04-11T05:07:26.742Z,10.73
2023-04-11T05:12:26.675Z,10.74
2023-04-11T05:17:26.608Z,10.73
2023-04-11T05:22:26.542Z,10.71
2023-04-11T05:27:26.471Z,10.70
2023-04-11T05:32:26.433Z,10.70
2023-04-11T05:37:26.366Z,10.75
2023-04-11T05:42:26.265Z,10.74
2023-04-11T05:47:26.241Z,10.67
2023-04-11T05:52:26.132Z,10.59
2023-04-11T05:57:26.067Z,10.56
2023-04-11T06:02:26.122Z,10.59
2023-04-11T06:07:25.932Z,10.60
2023-04-11T06:12:25.856Z,10.62
2023-04-11T06:17:25.823Z,10.58
2023-04-11T06:22:25.723Z,10.58
2023-04-11T06:27:25.664Z,10.62
2023-04-11T06:32:25.611Z,10.70
2023-04-11T06:37:25.536Z,10.74
2023-04-11T06:42:25.473Z,10.85
2023-04-11T06:47:25.467Z,10.91
2023-04-11T06:52:27.558Z,10.98
2023-04-11T06:57:25.268Z,11.07
2023-04-11T07:02:25.414Z,11.30
2023-04-11T07:07:25.133Z,11.30
2023-04-11T07:12:25.059Z,11.30
2023-04-11T07:17:25.040Z,11.50
2023-04-11T07:22:24.921Z,12.09
2023-04-11T07:27:24.866Z,12.61
2023-04-11T07:32:24.818Z,13.11
2023-04-11T07:37:24.730Z,13.19
2023-04-11T07:42:24.660Z,12.90
2023-04-11T07:47:24.629Z,12.95
2023-04-11T07:52:24.516Z,14.59
2023-04-11T07:57:24.457Z,14.15
2023-04-11T08:02:24.562Z,15.03
2023-04-11T08:07:24.324Z,15.35
2023-04-11T08:12:24.259Z,15.52
2023-04-11T08:17:28.312Z,17.04
2023-04-11T08:22:24.127Z,18.24
2023-04-11T08:27:24.058Z,18.86
2023-04-11T08:32:24.073Z,18.56
2023-04-11T08:37:23.940Z,18.49
2023-04-11T08:42:23.850Z,17.54
2023-04-11T08:47:23.828Z,18.47
2023-04-11T08:52:23.769Z,19.79
2023-04-11T08:57:23.806Z,20.43
2023-04-11T09:02:23.980Z,21.77
2023-04-11T09:07:23.776Z,20.57
2023-04-11T09:12:23.455Z,21.42
2023-04-11T09:17:23.462Z,21.58
2023-04-11T09:22:23.320Z,21.14
2023-04-11T09:27:23.264Z,21.72
2023-04-11T09:32:23.218Z,21.83
2023-04-11T09:37:23.134Z,19.91
2023-04-11T09:42:23.065Z,18.75
2023-04-11T09:47:23.025Z,19.86
2023-04-11T09:52:22.931Z,17.75
2023-04-11T09:57:22.865Z,16.48
2023-04-11T10:02:22.977Z,17.30
2023-04-11T10:07:22.727Z,18.27
2023-04-11T10:12:22.655Z,17.52
2023-04-11T10:17:24.243Z,16.10
2023-04-11T10:22:22.520Z,14.76
2023-04-11T10:27:22.462Z,14.17
2023-04-11T10:32:22.435Z,13.76
2023-04-11T10:37:22.328Z,13.69
2023-04-11T10:42:22.254Z,14.68
2023-04-11T10:47:22.233Z,15.38
2023-04-11T10:52:22.179Z,15.83
2023-04-11T10:57:22.070Z,16.16
2023-04-11T11:02:22.411Z,15.86
2023-04-11T11:07:21.924Z,16.73
2023-04-11T11:12:21.855Z,17.54
2023-04-11T11:17:21.828Z,16.94
2023-04-11T11:22:21.714Z,16.16
2023-04-11T11:27:21.659Z,15.55
2023-04-11T11:32:21.585Z,15.65
2023-04-11T11:37:21.546Z,15.54
2023-04-11T11:42:21.461Z,15.41
2023-04-11T11:47:21.390Z,15.20
2023-04-11T11:52:21.318Z,14.87
2023-04-11T11:57:21.260Z,14.70
2023-04-11T12:02:21.280Z,14.60
2023-04-11T12:07:21.130Z,14.58
2023-04-11T12:12:21.092Z,14.81
2023-04-11T12:17:21.025Z,15.35
2023-04-11T12:22:20.916Z,15.79
2023-04-11T12:27:20.856Z,15.98
2023-04-11T12:32:20.804Z,15.95
2023-04-11T12:37:20.905Z,15.86
2023-04-11T12:42:23.780Z,15.62
2023-04-11T12:47:20.645Z,15.79
2023-04-11T12:52:20.511Z,16.01
2023-04-11T12:57:20.450Z,15.82
2023-04-11T13:02:20.623Z,15.49
2023-04-11T13:07:20.316Z,15.23
2023-04-11T13:12:20.238Z,14.90
2023-04-11T13:17:20.179Z,14.72
2023-04-11T13:22:20.104Z,14.58
2023-04-11T13:27:20.043Z,14.60
2023-04-11T13:32:19.977Z,14.54
2023-04-11T13:37:19.913Z,14.43
2023-04-11T13:42:19.839Z,14.53
2023-04-11T13:47:19.818Z,14.80
2023-04-11T13:52:19.714Z,14.88
2023-04-11T13:57:19.631Z,14.90
2023-04-11T14:02:19.636Z,14.91
2023-04-11T14:07:19.494Z,14.63
2023-04-11T14:12:19.434Z,14.62
2023-04-11T14:17:19.496Z,14.50
2023-04-11T14:22:19.308Z,14.45
2023-04-11T14:27:19.219Z,14.60
2023-04-11T14:32:19.159Z,14.81
2023-04-11T14:37:19.079Z,14.76
2023-04-11T14:42:19.131Z,14.66
2023-04-11T14:47:18.944Z,14.63
2023-04-11T14:52:18.881Z,14.60
2023-04-11T14:57:18.812Z,14.43
2023-04-11T15:02:18.929Z,14.22
2023-04-11T15:07:18.667Z,14.12
2023-04-11T15:12:18.610Z,14.18
2023-04-11T15:17:18.532Z,14.23
2023-04-11T15:22:18.472Z,14.30
2023-04-11T15:27:18.402Z,14.32
2023-04-11T15:32:18.608Z,14.22
2023-04-11T15:37:18.265Z,13.94
2023-04-11T15:42:18.231Z,13.85
2023-04-11T15:47:18.200Z,13.89
2023-04-11T15:52:18.080Z,14.08
2023-04-11T15:57:18.004Z,14.20
2023-04-11T16:02:18.009Z,14.25
2023-04-11T16:07:17.863Z,14.15
2023-04-11T16:12:17.819Z,14.07
2023-04-11T16:17:17.748Z,13.91
2023-04-11T16:22:17.891Z,13.73
2023-04-11T16:27:17.604Z,13.20
2023-04-11T16:32:17.538Z,12.64
2023-04-11T16:37:17.486Z,12.26
2023-04-11T16:42:17.411Z,11.93
2023-04-11T16:47:17.346Z,11.68
2023-04-11T16:52:17.278Z,11.65
2023-04-11T16:57:17.368Z,11.36
2023-04-11T17:02:17.221Z,11.14
2023-04-11T17:07:17.071Z,11.17
2023-04-11T17:12:17.007Z,11.32
2023-04-11T17:17:16.934Z,11.47
2023-04-11T17:22:16.873Z,11.47
2023-04-11T17:27:16.798Z,11.33
2023-04-11T17:32:16.742Z,11.16
2023-04-11T17:37:16.796Z,11.03
2023-04-11T17:42:16.640Z,10.74
2023-04-11T17:47:16.545Z,9.92
2023-04-11T17:52:16.477Z,10.10
2023-04-11T17:57:17.112Z,10.12
2023-04-11T18:02:16.455Z,10.09
2023-04-11T18:07:16.275Z,10.02
2023-04-11T18:12:16.217Z,9.82
2023-04-11T18:17:16.136Z,9.71
2023-04-11T18:22:16.071Z,9.58
2023-04-11T18:27:15.996Z,9.42
2023-04-11T18:32:19.881Z,9.21
2023-04-11T18:37:15.863Z,8.99
2023-04-11T18:42:15.802Z,8.70
2023-04-11T18:47:17.418Z,8.55
2023-04-11T18:52:15.701Z,8.53
2023-04-11T18:57:15.648Z,8.52
2023-04-11T19:02:15.589Z,8.33
2023-04-11T19:07:15.464Z,8.26
2023-04-11T19:12:15.409Z,8.11
2023-04-11T19:17:15.332Z,7.76
2023-04-11T19:22:15.283Z,7.56
2023-04-11T19:27:15.222Z,7.47
2023-04-11T19:32:15.164Z,7.40
2023-04-11T19:37:15.071Z,7.25
2023-04-11T19:42:15.002Z,7.10
2023-04-11T19:47:14.939Z,7.05
2023-04-11T19:52:14.875Z,6.88
2023-04-11T19:57:14.806Z,6.78
2023-04-11T20:02:14.863Z,6.76
2023-04-11T20:07:14.673Z,6.73
2023-04-11T20:12:14.607Z,6.62
2023-04-11T20:17:14.538Z,6.55
2023-04-11T20:22:14.471Z,6.38
2023-04-11T20:27:14.398Z,6.23
2023-04-11T20:32:14.339Z,6.20
2023-04-11T20:37:14.468Z,6.23
2023-04-11T20:42:14.219Z,6.20
2023-04-11T20:47:14.133Z,6.09
2023-04-11T20:52:14.073Z,6.09
2023-04-11T20:57:14.009Z,6.12
2023-04-11T21:02:14.075Z,6.02
2023-04-11T21:07:13.868Z,5.99
2023-04-11T21:12:13.795Z,5.89
2023-04-11T21:17:13.735Z,5.83
2023-04-11T21:22:13.660Z,5.86
2023-04-11T21:27:13.602Z,5.97
2023-04-11T21:32:13.534Z,6.08
2023-04-11T21:37:13.462Z,6.19
2023-04-11T21:42:13.452Z,6.19
2023-04-11T21:47:13.321Z,6.22
2023-04-11T21:52:13.265Z,6.19
2023-04-11T21:57:13.183Z,6.22
2023-04-11T22:02:13.352Z,6.12
2023-04-11T22:07:13.050Z,6.09
2023-04-11T22:12:13.001Z,5.94
2023-04-11T22:17:12.910Z,5.87
2023-04-11T22:22:12.851Z,5.79
2023-04-11T22:27:12.776Z,5.73
2023-04-11T22:32:12.766Z,5.66
2023-04-11T22:37:12.639Z,5.59
2023-04-11T22:42:12.687Z,5.59
2023-04-11T22:47:12.512Z,5.59
2023-04-11T22:52:12.445Z,5.49
2023-04-11T22:57:12.373Z,5.37
2023-04-11T23:02:12.345Z,5.22
2023-04-11T23:07:12.229Z,5.11
2023-04-11T23:12:12.182Z,5.06
2023-04-11T23:17:12.092Z,4.93
2023-04-11T23:22:12.044Z,4.86
2023-04-11T23:27:11.966Z,4.70
2023-04-11T23:32:11.908Z,4.56
2023-04-11T23:37:11.821Z,4.40
2023-04-11T23:42:11.764Z,4.28
2023-04-11T23:47:11.692Z,4.22
2023-04-11T23:52:11.632Z,4.05
2023-04-11T23:57:11.564Z,3.97
